sensor_id;sensor_type;location;lat;lon;timestamp;P1;durP1;ratioP1;P2;durP2;ratioP2
34499;SDS011;20745;50.882;6.962;2022-08-18T00:00:21;21.77;;;13.85;;
34499;SDS011;20745;50.882;6.962;2022-08-18T00:03:09;21.10;;;13.18;;
34499;SDS011;20745;50.882;6.962;2022-08-18T00:06:17;24.15;;;13.43;;
34499;SDS011;20745;50.882;6.962;2022-08-18T00:09:06;24.95;;;14.10;;
34499;SDS011;20745;50.882;6.962;2022-08-18T00:11:55;21.67;;;13.50;;
34499;SDS011;20745;50.882;6.962;2022-08-18T00:14:43;25.98;;;15.02;;
34499;SDS011;20745;50.882;6.962;2022-08-18T00:17:32;22.73;;;14.07;;
34499;SDS011;20745;50.882;6.962;2022-08-18T00:20:21;26.75;;;16.65;;
34499;SDS011;20745;50.882;6.962;2022-08-18T00:23:09;22.83;;;14.68;;
34499;SDS011;20745;50.882;6.962;2022-08-18T00:25:56;23.13;;;14.60;;
34499;SDS011;20745;50.882;6.962;2022-08-18T00:28:45;26.00;;;14.50;;
34499;SDS011;20745;50.882;6.962;2022-08-18T00:31:33;26.30;;;15.23;;
34499;SDS011;20745;50.882;6.962;2022-08-18T00:34:20;25.50;;;15.30;;
34499;SDS011;20745;50.882;6.962;2022-08-18T00:37:07;26.73;;;15.85;;
34499;SDS011;20745;50.882;6.962;2022-08-18T00:39:54;25.48;;;15.68;;
34499;SDS011;20745;50.882;6.962;2022-08-18T00:42:44;26.10;;;15.45;;
34499;SDS011;20745;50.882;6.962;2022-08-18T00:45:36;27.88;;;15.95;;
34499;SDS011;20745;50.882;6.962;2022-08-18T00:48:26;27.83;;;15.77;;
34499;SDS011;20745;50.882;6.962;2022-08-18T00:51:15;26.67;;;16.23;;
34499;SDS011;20745;50.882;6.962;2022-08-18T00:54:09;27.38;;;16.67;;
34499;SDS011;20745;50.882;6.962;2022-08-18T00:57:03;27.83;;;16.95;;
34499;SDS011;20745;50.882;6.962;2022-08-18T00:59:53;27.15;;;17.75;;
34499;SDS011;20745;50.882;6.962;2022-08-18T01:02:53;30.98;;;17.58;;
34499;SDS011;20745;50.882;6.962;2022-08-18T01:05:47;30.88;;;17.30;;
34499;SDS011;20745;50.882;6.962;2022-08-18T01:08:56;29.95;;;17.90;;
34499;SDS011;20745;50.882;6.962;2022-08-18T01:11:44;24.83;;;16.23;;
34499;SDS011;20745;50.882;6.962;2022-08-18T01:14:31;28.40;;;18.35;;
34499;SDS011;20745;50.882;6.962;2022-08-18T01:17:19;33.13;;;18.17;;
34499;SDS011;20745;50.882;6.962;2022-08-18T01:20:27;29.95;;;19.42;;
34499;SDS011;20745;50.882;6.962;2022-08-18T01:23:38;30.10;;;18.23;;
34499;SDS011;20745;50.882;6.962;2022-08-18T01:26:26;29.13;;;18.30;;
34499;SDS011;20745;50.882;6.962;2022-08-18T01:29:17;28.92;;;18.05;;
34499;SDS011;20745;50.882;6.962;2022-08-18T01:34:52;29.45;;;18.85;;
34499;SDS011;20745;50.882;6.962;2022-08-18T01:37:40;30.80;;;19.27;;
34499;SDS011;20745;50.882;6.962;2022-08-18T01:40:28;29.17;;;19.88;;
34499;SDS011;20745;50.882;6.962;2022-08-18T01:43:35;32.67;;;20.38;;
34499;SDS011;20745;50.882;6.962;2022-08-18T01:46:23;32.25;;;21.50;;
34499;SDS011;20745;50.882;6.962;2022-08-18T01:49:10;31.20;;;20.23;;
34499;SDS011;20745;50.882;6.962;2022-08-18T01:51:59;34.30;;;22.60;;
34499;SDS011;20745;50.882;6.962;2022-08-18T01:54:47;39.03;;;24.98;;
34499;SDS011;20745;50.882;6.962;2022-08-18T01:57:35;41.70;;;26.38;;
34499;SDS011;20745;50.882;6.962;2022-08-18T02:00:31;40.60;;;25.88;;
34499;SDS011;20745;50.882;6.962;2022-08-18T02:03:18;37.78;;;25.10;;
34499;SDS011;20745;50.882;6.962;2022-08-18T02:06:09;35.92;;;24.58;;
34499;SDS011;20745;50.882;6.962;2022-08-18T02:09:00;38.28;;;24.25;;
34499;SDS011;20745;50.882;6.962;2022-08-18T02:11:51;37.92;;;24.10;;
34499;SDS011;20745;50.882;6.962;2022-08-18T02:14:42;36.83;;;23.63;;
34499;SDS011;20745;50.882;6.962;2022-08-18T02:17:35;39.83;;;25.20;;
34499;SDS011;20745;50.882;6.962;2022-08-18T02:20:24;36.45;;;23.58;;
34499;SDS011;20745;50.882;6.962;2022-08-18T02:23:11;35.38;;;23.75;;
34499;SDS011;20745;50.882;6.962;2022-08-18T02:26:00;38.38;;;25.23;;
34499;SDS011;20745;50.882;6.962;2022-08-18T02:28:50;42.38;;;25.95;;
34499;SDS011;20745;50.882;6.962;2022-08-18T02:31:38;40.58;;;26.05;;
34499;SDS011;20745;50.882;6.962;2022-08-18T02:34:25;40.35;;;26.38;;
34499;SDS011;20745;50.882;6.962;2022-08-18T02:37:13;43.33;;;28.02;;
34499;SDS011;20745;50.882;6.962;2022-08-18T02:40:01;39.03;;;26.20;;
34499;SDS011;20745;50.882;6.962;2022-08-18T02:42:49;39.20;;;25.60;;
34499;SDS011;20745;50.882;6.962;2022-08-18T02:45:38;38.28;;;25.25;;
34499;SDS011;20745;50.882;6.962;2022-08-18T02:48:26;42.35;;;25.77;;
34499;SDS011;20745;50.882;6.962;2022-08-18T02:51:22;40.28;;;25.70;;
34499;SDS011;20745;50.882;6.962;2022-08-18T02:54:12;38.22;;;26.92;;
34499;SDS011;20745;50.882;6.962;2022-08-18T02:57:04;43.03;;;27.42;;
34499;SDS011;20745;50.882;6.962;2022-08-18T02:59:53;40.28;;;26.35;;
34499;SDS011;20745;50.882;6.962;2022-08-18T03:02:47;41.72;;;29.15;;
34499;SDS011;20745;50.882;6.962;2022-08-18T03:05:37;41.10;;;27.83;;
34499;SDS011;20745;50.882;6.962;2022-08-18T03:08:25;45.90;;;31.60;;
34499;SDS011;20745;50.882;6.962;2022-08-18T03:11:12;43.38;;;29.83;;
34499;SDS011;20745;50.882;6.962;2022-08-18T03:13:59;43.22;;;27.73;;
34499;SDS011;20745;50.882;6.962;2022-08-18T03:16:47;41.40;;;27.80;;
34499;SDS011;20745;50.882;6.962;2022-08-18T03:19:41;41.20;;;28.42;;
34499;SDS011;20745;50.882;6.962;2022-08-18T03:22:33;44.97;;;28.50;;
34499;SDS011;20745;50.882;6.962;2022-08-18T03:25:20;43.50;;;28.45;;
34499;SDS011;20745;50.882;6.962;2022-08-18T03:28:08;47.33;;;31.73;;
34499;SDS011;20745;50.882;6.962;2022-08-18T03:30:55;44.75;;;30.90;;
34499;SDS011;20745;50.882;6.962;2022-08-18T03:33:43;41.83;;;29.00;;
34499;SDS011;20745;50.882;6.962;2022-08-18T03:36:32;43.70;;;29.95;;
34499;SDS011;20745;50.882;6.962;2022-08-18T03:39:21;45.15;;;30.67;;
34499;SDS011;20745;50.882;6.962;2022-08-18T03:42:12;48.53;;;31.30;;
34499;SDS011;20745;50.882;6.962;2022-08-18T03:45:00;43.58;;;29.65;;
34499;SDS011;20745;50.882;6.962;2022-08-18T03:48:03;42.03;;;29.95;;
34499;SDS011;20745;50.882;6.962;2022-08-18T03:50:50;44.63;;;31.38;;
34499;SDS011;20745;50.882;6.962;2022-08-18T03:53:38;44.47;;;30.52;;
34499;SDS011;20745;50.882;6.962;2022-08-18T03:56:30;50.72;;;31.15;;
34499;SDS011;20745;50.882;6.962;2022-08-18T03:59:20;43.38;;;29.20;;
34499;SDS011;20745;50.882;6.962;2022-08-18T04:02:10;44.35;;;30.48;;
34499;SDS011;20745;50.882;6.962;2022-08-18T04:04:57;47.17;;;31.63;;
34499;SDS011;20745;50.882;6.962;2022-08-18T04:07:45;46.13;;;30.13;;
34499;SDS011;20745;50.882;6.962;2022-08-18T04:10:32;48.33;;;33.53;;
34499;SDS011;20745;50.882;6.962;2022-08-18T04:13:21;47.63;;;34.90;;
34499;SDS011;20745;50.882;6.962;2022-08-18T04:16:08;49.03;;;33.85;;
34499;SDS011;20745;50.882;6.962;2022-08-18T04:18:56;50.33;;;35.88;;
34499;SDS011;20745;50.882;6.962;2022-08-18T04:21:51;50.97;;;34.08;;
34499;SDS011;20745;50.882;6.962;2022-08-18T04:24:39;48.10;;;32.87;;
34499;SDS011;20745;50.882;6.962;2022-08-18T04:27:27;49.80;;;35.47;;
34499;SDS011;20745;50.882;6.962;2022-08-18T04:30:15;49.72;;;33.10;;
34499;SDS011;20745;50.882;6.962;2022-08-18T04:33:02;47.85;;;32.55;;
34499;SDS011;20745;50.882;6.962;2022-08-18T04:35:52;46.25;;;32.70;;
34499;SDS011;20745;50.882;6.962;2022-08-18T04:38:41;48.08;;;32.83;;
34499;SDS011;20745;50.882;6.962;2022-08-18T04:41:28;52.00;;;33.88;;
34499;SDS011;20745;50.882;6.962;2022-08-18T04:44:16;52.17;;;35.70;;
34499;SDS011;20745;50.882;6.962;2022-08-18T04:47:04;67.25;;;42.72;;
34499;SDS011;20745;50.882;6.962;2022-08-18T04:49:53;74.00;;;44.58;;
34499;SDS011;20745;50.882;6.962;2022-08-18T04:52:41;76.95;;;44.38;;
34499;SDS011;20745;50.882;6.962;2022-08-18T04:55:51;102.45;;;54.38;;
34499;SDS011;20745;50.882;6.962;2022-08-18T04:58:41;100.78;;;53.63;;
34499;SDS011;20745;50.882;6.962;2022-08-18T05:01:30;96.38;;;50.95;;
34499;SDS011;20745;50.882;6.962;2022-08-18T05:04:23;98.53;;;53.30;;
34499;SDS011;20745;50.882;6.962;2022-08-18T05:07:16;102.80;;;55.30;;
34499;SDS011;20745;50.882;6.962;2022-08-18T05:10:05;98.05;;;53.22;;
34499;SDS011;20745;50.882;6.962;2022-08-18T05:12:53;97.60;;;52.30;;
34499;SDS011;20745;50.882;6.962;2022-08-18T05:15:40;97.30;;;54.45;;
34499;SDS011;20745;50.882;6.962;2022-08-18T05:18:48;100.60;;;53.55;;
34499;SDS011;20745;50.882;6.962;2022-08-18T05:21:38;100.03;;;53.45;;
34499;SDS011;20745;50.882;6.962;2022-08-18T05:24:29;98.75;;;54.65;;
34499;SDS011;20745;50.882;6.962;2022-08-18T05:27:23;88.65;;;51.80;;
34499;SDS011;20745;50.882;6.962;2022-08-18T05:30:13;86.53;;;50.25;;
34499;SDS011;20745;50.882;6.962;2022-08-18T05:33:01;88.80;;;50.13;;
34499;SDS011;20745;50.882;6.962;2022-08-18T05:35:50;78.55;;;48.60;;
34499;SDS011;20745;50.882;6.962;2022-08-18T05:44:57;83.30;;;46.72;;
34499;SDS011;20745;50.882;6.962;2022-08-18T05:47:46;73.90;;;43.55;;
34499;SDS011;20745;50.882;6.962;2022-08-18T05:50:33;75.53;;;44.17;;
34499;SDS011;20745;50.882;6.962;2022-08-18T05:53:23;77.18;;;46.28;;
34499;SDS011;20745;50.882;6.962;2022-08-18T05:56:31;73.75;;;44.15;;
34499;SDS011;20745;50.882;6.962;2022-08-18T05:59:34;75.53;;;44.70;;
34499;SDS011;20745;50.882;6.962;2022-08-18T06:05:26;85.13;;;43.70;;
34499;SDS011;20745;50.882;6.962;2022-08-18T06:08:17;86.20;;;47.30;;
34499;SDS011;20745;50.882;6.962;2022-08-18T06:11:08;92.13;;;46.72;;
34499;SDS011;20745;50.882;6.962;2022-08-18T06:14:08;100.63;;;51.33;;
34499;SDS011;20745;50.882;6.962;2022-08-18T06:22:57;82.82;;;47.20;;
34499;SDS011;20745;50.882;6.962;2022-08-18T06:26:16;86.72;;;48.65;;
34499;SDS011;20745;50.882;6.962;2022-08-18T06:29:15;80.53;;;46.45;;
34499;SDS011;20745;50.882;6.962;2022-08-18T06:32:37;96.45;;;49.45;;
34499;SDS011;20745;50.882;6.962;2022-08-18T06:39:00;85.88;;;48.88;;
34499;SDS011;20745;50.882;6.962;2022-08-18T06:42:02;88.53;;;50.33;;
34499;SDS011;20745;50.882;6.962;2022-08-18T06:47:42;93.90;;;50.95;;
34499;SDS011;20745;50.882;6.962;2022-08-18T06:50:43;86.35;;;47.40;;
34499;SDS011;20745;50.882;6.962;2022-08-18T06:57:07;90.35;;;49.60;;
34499;SDS011;20745;50.882;6.962;2022-08-18T07:00:18;86.95;;;48.47;;
34499;SDS011;20745;50.882;6.962;2022-08-18T07:03:13;85.35;;;48.97;;
34499;SDS011;20745;50.882;6.962;2022-08-18T07:06:05;91.30;;;48.15;;
34499;SDS011;20745;50.882;6.962;2022-08-18T07:08:53;88.38;;;48.45;;
34499;SDS011;20745;50.882;6.962;2022-08-18T07:12:08;85.63;;;48.37;;
34499;SDS011;20745;50.882;6.962;2022-08-18T07:14:58;92.72;;;50.15;;
34499;SDS011;20745;50.882;6.962;2022-08-18T07:17:48;87.68;;;48.55;;
34499;SDS011;20745;50.882;6.962;2022-08-18T07:23:36;81.53;;;44.67;;
34499;SDS011;20745;50.882;6.962;2022-08-18T07:26:25;78.82;;;43.92;;
34499;SDS011;20745;50.882;6.962;2022-08-18T07:29:13;76.15;;;40.97;;
34499;SDS011;20745;50.882;6.962;2022-08-18T07:32:04;66.88;;;39.22;;
34499;SDS011;20745;50.882;6.962;2022-08-18T07:35:07;60.83;;;37.13;;
34499;SDS011;20745;50.882;6.962;2022-08-18T07:38:02;64.78;;;37.42;;
34499;SDS011;20745;50.882;6.962;2022-08-18T07:41:24;57.03;;;35.50;;
34499;SDS011;20745;50.882;6.962;2022-08-18T07:44:26;58.53;;;35.22;;
34499;SDS011;20745;50.882;6.962;2022-08-18T07:47:33;64.22;;;36.17;;
34499;SDS011;20745;50.882;6.962;2022-08-18T07:50:27;60.00;;;36.10;;
34499;SDS011;20745;50.882;6.962;2022-08-18T07:55:53;54.65;;;35.42;;
34499;SDS011;20745;50.882;6.962;2022-08-18T07:58:53;54.25;;;34.22;;
34499;SDS011;20745;50.882;6.962;2022-08-18T08:07:54;53.00;;;33.53;;
34499;SDS011;20745;50.882;6.962;2022-08-18T08:10:55;51.53;;;31.60;;
34499;SDS011;20745;50.882;6.962;2022-08-18T08:25:45;49.33;;;30.33;;
34499;SDS011;20745;50.882;6.962;2022-08-18T08:31:44;50.60;;;30.55;;
34499;SDS011;20745;50.882;6.962;2022-08-18T08:34:48;46.03;;;29.08;;
34499;SDS011;20745;50.882;6.962;2022-08-18T08:37:53;46.78;;;29.65;;
34499;SDS011;20745;50.882;6.962;2022-08-18T08:41:13;45.35;;;27.75;;
34499;SDS011;20745;50.882;6.962;2022-08-18T08:44:23;45.80;;;28.27;;
34499;SDS011;20745;50.882;6.962;2022-08-18T08:47:23;44.10;;;27.70;;
34499;SDS011;20745;50.882;6.962;2022-08-18T08:50:17;44.17;;;26.58;;
34499;SDS011;20745;50.882;6.962;2022-08-18T08:56:12;41.38;;;26.27;;
34499;SDS011;20745;50.882;6.962;2022-08-18T08:59:03;41.55;;;26.25;;
34499;SDS011;20745;50.882;6.962;2022-08-18T09:05:22;44.13;;;26.48;;
34499;SDS011;20745;50.882;6.962;2022-08-18T09:08:24;42.88;;;27.10;;
34499;SDS011;20745;50.882;6.962;2022-08-18T09:18:02;41.00;;;24.75;;
34499;SDS011;20745;50.882;6.962;2022-08-18T09:21:30;43.42;;;26.23;;
34499;SDS011;20745;50.882;6.962;2022-08-18T09:24:31;43.20;;;27.08;;
34499;SDS011;20745;50.882;6.962;2022-08-18T09:30:45;36.78;;;23.73;;
34499;SDS011;20745;50.882;6.962;2022-08-18T09:39:40;37.63;;;24.27;;
34499;SDS011;20745;50.882;6.962;2022-08-18T09:43:33;37.10;;;23.42;;
34499;SDS011;20745;50.882;6.962;2022-08-18T09:53:14;36.65;;;22.05;;
34499;SDS011;20745;50.882;6.962;2022-08-18T10:05:26;34.75;;;22.17;;
34499;SDS011;20745;50.882;6.962;2022-08-18T10:11:24;35.53;;;22.08;;
34499;SDS011;20745;50.882;6.962;2022-08-18T10:14:30;36.42;;;21.42;;
34499;SDS011;20745;50.882;6.962;2022-08-18T10:17:43;34.42;;;21.20;;
34499;SDS011;20745;50.882;6.962;2022-08-18T10:23:56;29.88;;;19.75;;
34499;SDS011;20745;50.882;6.962;2022-08-18T10:34:06;33.25;;;20.90;;
34499;SDS011;20745;50.882;6.962;2022-08-18T10:40:16;30.80;;;19.70;;
34499;SDS011;20745;50.882;6.962;2022-08-18T10:43:17;33.08;;;21.30;;
34499;SDS011;20745;50.882;6.962;2022-08-18T10:46:33;29.17;;;18.70;;
34499;SDS011;20745;50.882;6.962;2022-08-18T10:49:32;30.08;;;20.13;;
34499;SDS011;20745;50.882;6.962;2022-08-18T11:04:48;32.00;;;20.60;;
34499;SDS011;20745;50.882;6.962;2022-08-18T11:07:45;27.23;;;17.65;;
34499;SDS011;20745;50.882;6.962;2022-08-18T11:10:46;30.25;;;18.75;;
34499;SDS011;20745;50.882;6.962;2022-08-18T11:17:25;33.20;;;21.75;;
34499;SDS011;20745;50.882;6.962;2022-08-18T11:20:30;32.05;;;20.38;;
34499;SDS011;20745;50.882;6.962;2022-08-18T11:23:19;29.25;;;18.58;;
34499;SDS011;20745;50.882;6.962;2022-08-18T11:26:14;32.28;;;21.20;;
34499;SDS011;20745;50.882;6.962;2022-08-18T11:29:22;32.78;;;22.10;;
34499;SDS011;20745;50.882;6.962;2022-08-18T11:32:12;32.65;;;22.48;;
34499;SDS011;20745;50.882;6.962;2022-08-18T11:38:09;30.27;;;19.63;;
34499;SDS011;20745;50.882;6.962;2022-08-18T11:41:25;30.13;;;18.13;;
34499;SDS011;20745;50.882;6.962;2022-08-18T11:44:34;29.67;;;18.55;;
34499;SDS011;20745;50.882;6.962;2022-08-18T11:47:24;28.90;;;17.90;;
34499;SDS011;20745;50.882;6.962;2022-08-18T11:50:18;27.35;;;17.30;;
34499;SDS011;20745;50.882;6.962;2022-08-18T11:53:15;28.98;;;19.15;;
34499;SDS011;20745;50.882;6.962;2022-08-18T11:56:25;23.92;;;15.20;;
34499;SDS011;20745;50.882;6.962;2022-08-18T12:02:30;28.30;;;18.70;;
34499;SDS011;20745;50.882;6.962;2022-08-18T12:05:18;25.48;;;16.70;;
34499;SDS011;20745;50.882;6.962;2022-08-18T12:08:15;26.60;;;16.42;;
34499;SDS011;20745;50.882;6.962;2022-08-18T12:14:20;31.98;;;19.88;;
34499;SDS011;20745;50.882;6.962;2022-08-18T12:17:20;28.10;;;18.00;;
34499;SDS011;20745;50.882;6.962;2022-08-18T12:20:08;26.70;;;15.82;;
34499;SDS011;20745;50.882;6.962;2022-08-18T12:22:57;31.40;;;18.50;;
34499;SDS011;20745;50.882;6.962;2022-08-18T12:25:45;24.88;;;15.77;;
34499;SDS011;20745;50.882;6.962;2022-08-18T12:28:37;26.25;;;16.80;;
34499;SDS011;20745;50.882;6.962;2022-08-18T12:31:25;26.20;;;16.75;;
34499;SDS011;20745;50.882;6.962;2022-08-18T12:34:28;24.88;;;14.73;;
34499;SDS011;20745;50.882;6.962;2022-08-18T12:37:17;27.40;;;16.63;;
34499;SDS011;20745;50.882;6.962;2022-08-18T12:40:26;30.13;;;18.48;;
34499;SDS011;20745;50.882;6.962;2022-08-18T12:43:13;29.27;;;18.00;;
34499;SDS011;20745;50.882;6.962;2022-08-18T12:46:02;25.42;;;16.23;;
34499;SDS011;20745;50.882;6.962;2022-08-18T12:48:50;29.15;;;18.08;;
34499;SDS011;20745;50.882;6.962;2022-08-18T12:51:38;30.27;;;16.35;;
34499;SDS011;20745;50.882;6.962;2022-08-18T12:54:25;27.35;;;17.98;;
34499;SDS011;20745;50.882;6.962;2022-08-18T12:57:18;25.73;;;16.88;;
34499;SDS011;20745;50.882;6.962;2022-08-18T13:00:28;26.92;;;17.02;;
34499;SDS011;20745;50.882;6.962;2022-08-18T13:03:15;30.00;;;17.70;;
34499;SDS011;20745;50.882;6.962;2022-08-18T13:06:05;28.70;;;19.25;;
34499;SDS011;20745;50.882;6.962;2022-08-18T13:08:54;28.30;;;16.77;;
34499;SDS011;20745;50.882;6.962;2022-08-18T13:11:44;29.52;;;20.13;;
34499;SDS011;20745;50.882;6.962;2022-08-18T13:14:32;26.27;;;17.10;;
34499;SDS011;20745;50.882;6.962;2022-08-18T13:17:19;30.80;;;20.55;;
34499;SDS011;20745;50.882;6.962;2022-08-18T13:20:20;24.50;;;15.15;;
34499;SDS011;20745;50.882;6.962;2022-08-18T13:23:07;26.95;;;17.50;;
34499;SDS011;20745;50.882;6.962;2022-08-18T13:25:56;25.90;;;17.00;;
34499;SDS011;20745;50.882;6.962;2022-08-18T13:28:48;27.77;;;18.45;;
34499;SDS011;20745;50.882;6.962;2022-08-18T13:31:44;30.85;;;19.35;;
34499;SDS011;20745;50.882;6.962;2022-08-18T13:34:43;26.33;;;16.73;;
34499;SDS011;20745;50.882;6.962;2022-08-18T13:37:36;28.27;;;18.77;;
34499;SDS011;20745;50.882;6.962;2022-08-18T13:40:25;25.55;;;17.45;;
34499;SDS011;20745;50.882;6.962;2022-08-18T13:43:16;25.08;;;15.82;;
34499;SDS011;20745;50.882;6.962;2022-08-18T13:46:10;22.77;;;14.68;;
34499;SDS011;20745;50.882;6.962;2022-08-18T13:49:03;27.65;;;17.38;;
34499;SDS011;20745;50.882;6.962;2022-08-18T13:51:51;28.52;;;16.17;;
34499;SDS011;20745;50.882;6.962;2022-08-18T13:54:47;23.52;;;14.60;;
34499;SDS011;20745;50.882;6.962;2022-08-18T13:57:40;22.42;;;13.52;;
34499;SDS011;20745;50.882;6.962;2022-08-18T14:00:40;20.40;;;11.60;;
34499;SDS011;20745;50.882;6.962;2022-08-18T14:03:28;22.52;;;12.35;;
34499;SDS011;20745;50.882;6.962;2022-08-18T14:06:33;23.15;;;12.20;;
34499;SDS011;20745;50.882;6.962;2022-08-18T14:09:21;19.42;;;12.05;;
34499;SDS011;20745;50.882;6.962;2022-08-18T14:12:23;20.13;;;12.02;;
34499;SDS011;20745;50.882;6.962;2022-08-18T14:15:18;23.75;;;13.35;;
34499;SDS011;20745;50.882;6.962;2022-08-18T14:18:06;20.38;;;12.18;;
34499;SDS011;20745;50.882;6.962;2022-08-18T14:21:02;20.30;;;10.95;;
34499;SDS011;20745;50.882;6.962;2022-08-18T14:24:09;19.17;;;10.35;;
34499;SDS011;20745;50.882;6.962;2022-08-18T14:27:18;18.00;;;10.05;;
34499;SDS011;20745;50.882;6.962;2022-08-18T14:30:12;18.25;;;10.43;;
34499;SDS011;20745;50.882;6.962;2022-08-18T14:33:00;18.05;;;9.40;;
34499;SDS011;20745;50.882;6.962;2022-08-18T14:35:51;15.75;;;8.38;;
34499;SDS011;20745;50.882;6.962;2022-08-18T14:38:55;15.98;;;7.65;;
34499;SDS011;20745;50.882;6.962;2022-08-18T14:41:44;16.70;;;7.67;;
34499;SDS011;20745;50.882;6.962;2022-08-18T14:44:40;15.98;;;7.45;;
34499;SDS011;20745;50.882;6.962;2022-08-18T14:47:32;15.13;;;7.25;;
34499;SDS011;20745;50.882;6.962;2022-08-18T14:50:23;16.40;;;7.75;;
34499;SDS011;20745;50.882;6.962;2022-08-18T14:53:11;13.98;;;7.18;;
34499;SDS011;20745;50.882;6.962;2022-08-18T14:58:48;16.88;;;7.78;;
34499;SDS011;20745;50.882;6.962;2022-08-18T15:01:37;16.00;;;7.63;;
34499;SDS011;20745;50.882;6.962;2022-08-18T15:04:28;14.60;;;6.97;;
34499;SDS011;20745;50.882;6.962;2022-08-18T15:07:16;14.10;;;6.70;;
34499;SDS011;20745;50.882;6.962;2022-08-18T15:10:11;14.13;;;6.32;;
34499;SDS011;20745;50.882;6.962;2022-08-18T15:13:02;14.48;;;6.50;;
34499;SDS011;20745;50.882;6.962;2022-08-18T15:15:50;13.55;;;6.25;;
34499;SDS011;20745;50.882;6.962;2022-08-18T15:18:39;14.05;;;6.25;;
34499;SDS011;20745;50.882;6.962;2022-08-18T15:21:28;17.95;;;7.78;;
34499;SDS011;20745;50.882;6.962;2022-08-18T15:24:38;14.18;;;6.75;;
34499;SDS011;20745;50.882;6.962;2022-08-18T15:27:44;16.95;;;6.70;;
34499;SDS011;20745;50.882;6.962;2022-08-18T15:30:38;15.55;;;6.68;;
34499;SDS011;20745;50.882;6.962;2022-08-18T15:33:27;13.43;;;6.50;;
34499;SDS011;20745;50.882;6.962;2022-08-18T15:36:21;14.52;;;6.53;;
34499;SDS011;20745;50.882;6.962;2022-08-18T15:39:15;13.32;;;6.35;;
34499;SDS011;20745;50.882;6.962;2022-08-18T15:42:07;16.55;;;6.93;;
34499;SDS011;20745;50.882;6.962;2022-08-18T15:44:59;15.25;;;6.97;;
34499;SDS011;20745;50.882;6.962;2022-08-18T15:47:58;13.43;;;6.25;;
34499;SDS011;20745;50.882;6.962;2022-08-18T15:50:46;13.18;;;7.00;;
34499;SDS011;20745;50.882;6.962;2022-08-18T15:53:37;16.42;;;7.53;;
34499;SDS011;20745;50.882;6.962;2022-08-18T15:56:30;14.82;;;6.80;;
34499;SDS011;20745;50.882;6.962;2022-08-18T15:59:18;13.93;;;6.93;;
34499;SDS011;20745;50.882;6.962;2022-08-18T16:02:08;16.45;;;7.72;;
34499;SDS011;20745;50.882;6.962;2022-08-18T16:05:07;17.23;;;8.27;;
34499;SDS011;20745;50.882;6.962;2022-08-18T16:07:58;16.42;;;8.57;;
34499;SDS011;20745;50.882;6.962;2022-08-18T16:10:47;13.70;;;7.25;;
34499;SDS011;20745;50.882;6.962;2022-08-18T16:13:34;15.25;;;7.13;;
34499;SDS011;20745;50.882;6.962;2022-08-18T16:16:21;15.63;;;7.90;;
34499;SDS011;20745;50.882;6.962;2022-08-18T16:19:22;17.35;;;9.13;;
34499;SDS011;20745;50.882;6.962;2022-08-18T16:22:11;17.10;;;8.73;;
34499;SDS011;20745;50.882;6.962;2022-08-18T16:24:59;18.52;;;9.82;;
34499;SDS011;20745;50.882;6.962;2022-08-18T16:27:48;16.65;;;9.15;;
34499;SDS011;20745;50.882;6.962;2022-08-18T16:30:35;18.20;;;8.65;;
34499;SDS011;20745;50.882;6.962;2022-08-18T16:33:23;17.90;;;9.13;;
34499;SDS011;20745;50.882;6.962;2022-08-18T16:36:11;16.30;;;9.32;;
34499;SDS011;20745;50.882;6.962;2022-08-18T16:41:47;20.38;;;9.07;;
34499;SDS011;20745;50.882;6.962;2022-08-18T16:44:34;20.00;;;10.68;;
34499;SDS011;20745;50.882;6.962;2022-08-18T16:47:22;18.20;;;10.40;;
34499;SDS011;20745;50.882;6.962;2022-08-18T16:50:11;19.10;;;11.30;;
34499;SDS011;20745;50.882;6.962;2022-08-18T16:53:01;22.58;;;11.95;;
34499;SDS011;20745;50.882;6.962;2022-08-18T16:55:48;20.10;;;11.55;;
34499;SDS011;20745;50.882;6.962;2022-08-18T16:58:35;22.50;;;11.23;;
34499;SDS011;20745;50.882;6.962;2022-08-18T17:01:41;18.58;;;10.75;;
34499;SDS011;20745;50.882;6.962;2022-08-18T17:04:47;22.42;;;11.75;;
34499;SDS011;20745;50.882;6.962;2022-08-18T17:07:37;18.05;;;9.82;;
34499;SDS011;20745;50.882;6.962;2022-08-18T17:10:25;22.30;;;10.75;;
34499;SDS011;20745;50.882;6.962;2022-08-18T17:13:13;24.70;;;10.52;;
34499;SDS011;20745;50.882;6.962;2022-08-18T17:16:00;19.30;;;10.52;;
34499;SDS011;20745;50.882;6.962;2022-08-18T17:18:47;19.38;;;10.63;;
34499;SDS011;20745;50.882;6.962;2022-08-18T17:21:35;17.65;;;9.77;;
34499;SDS011;20745;50.882;6.962;2022-08-18T17:24:23;18.75;;;9.75;;
34499;SDS011;20745;50.882;6.962;2022-08-18T17:27:19;19.63;;;9.98;;
34499;SDS011;20745;50.882;6.962;2022-08-18T17:30:14;16.90;;;8.43;;
34499;SDS011;20745;50.882;6.962;2022-08-18T17:33:09;16.45;;;8.77;;
34499;SDS011;20745;50.882;6.962;2022-08-18T17:36:02;18.83;;;9.30;;
34499;SDS011;20745;50.882;6.962;2022-08-18T17:38:55;17.80;;;9.18;;
34499;SDS011;20745;50.882;6.962;2022-08-18T17:41:44;17.23;;;9.00;;
34499;SDS011;20745;50.882;6.962;2022-08-18T17:44:51;19.48;;;9.15;;
34499;SDS011;20745;50.882;6.962;2022-08-18T17:47:54;16.38;;;7.90;;
34499;SDS011;20745;50.882;6.962;2022-08-18T17:50:50;18.25;;;7.80;;
34499;SDS011;20745;50.882;6.962;2022-08-18T17:57:24;19.50;;;8.85;;
34499;SDS011;20745;50.882;6.962;2022-08-18T18:00:20;16.77;;;7.32;;
34499;SDS011;20745;50.882;6.962;2022-08-18T18:03:09;17.52;;;6.80;;
34499;SDS011;20745;50.882;6.962;2022-08-18T18:06:08;17.00;;;7.05;;
34499;SDS011;20745;50.882;6.962;2022-08-18T18:09:00;16.23;;;6.38;;
34499;SDS011;20745;50.882;6.962;2022-08-18T18:11:55;15.52;;;6.25;;
34499;SDS011;20745;50.882;6.962;2022-08-18T18:14:43;17.85;;;6.57;;
34499;SDS011;20745;50.882;6.962;2022-08-18T18:17:31;16.05;;;5.78;;
34499;SDS011;20745;50.882;6.962;2022-08-18T18:20:34;17.83;;;6.35;;
34499;SDS011;20745;50.882;6.962;2022-08-18T18:23:27;14.98;;;6.53;;
34499;SDS011;20745;50.882;6.962;2022-08-18T18:26:22;13.35;;;5.50;;
34499;SDS011;20745;50.882;6.962;2022-08-18T18:29:24;14.52;;;6.00;;
34499;SDS011;20745;50.882;6.962;2022-08-18T18:32:22;12.77;;;5.57;;
34499;SDS011;20745;50.882;6.962;2022-08-18T18:35:20;15.05;;;5.82;;
34499;SDS011;20745;50.882;6.962;2022-08-18T18:38:33;13.35;;;5.60;;
34499;SDS011;20745;50.882;6.962;2022-08-18T18:41:25;13.77;;;5.40;;
34499;SDS011;20745;50.882;6.962;2022-08-18T18:44:14;14.57;;;5.05;;
34499;SDS011;20745;50.882;6.962;2022-08-18T18:47:07;13.07;;;4.72;;
34499;SDS011;20745;50.882;6.962;2022-08-18T18:50:11;13.05;;;4.63;;
34499;SDS011;20745;50.882;6.962;2022-08-18T18:53:21;15.82;;;5.18;;
34499;SDS011;20745;50.882;6.962;2022-08-18T19:09:07;13.40;;;4.97;;
34499;SDS011;20745;50.882;6.962;2022-08-18T19:15:07;12.60;;;5.22;;
34499;SDS011;20745;50.882;6.962;2022-08-18T19:18:02;17.67;;;5.38;;
34499;SDS011;20745;50.882;6.962;2022-08-18T19:21:03;13.32;;;5.68;;
34499;SDS011;20745;50.882;6.962;2022-08-18T19:24:21;14.68;;;6.05;;
34499;SDS011;20745;50.882;6.962;2022-08-18T19:27:14;13.23;;;5.40;;
34499;SDS011;20745;50.882;6.962;2022-08-18T19:30:11;15.05;;;5.50;;
34499;SDS011;20745;50.882;6.962;2022-08-18T19:33:01;17.17;;;6.13;;
34499;SDS011;20745;50.882;6.962;2022-08-18T19:35:52;16.15;;;6.10;;
34499;SDS011;20745;50.882;6.962;2022-08-18T19:48:15;18.27;;;5.88;;